Time;durP1;ratioP1;P1;durP2;ratioP2;P2;SDS_P1;SDS_P2;PMS_P1;PMS_P2;Temp;Humidity;BMP_temperature;BMP_pressure;BME280_temperature;BME280_humidity;BME280_pressure;Samples;Min_cycle;Max_cycle;Signal;HPM_P1;HPM_P2
2021/05/28 00:01:21;;;;;;;2.65;2.45;;;10.20;71.30;;;9.45;57.22;95163.75;5046550;28;20208;-84
2021/05/28 00:03:48;;;;;;;2.50;2.30;;;10.10;71.20;;;9.46;57.21;95170.63;4985239;28;20232;-84
2021/05/28 00:06:15;;;;;;;2.63;2.20;;;10.10;71.00;;;9.45;57.34;95175.03;4917715;28;20221;-83
2021/05/28 00:08:43;;;;;;;2.20;2.00;;;10.10;71.00;;;9.42;57.27;95174.56;4778553;29;20794;-84
2021/05/28 00:12:51;;;;;;;2.45;2.25;;;10.10;71.00;;;9.35;57.60;95179.72;5146940;27;20648;-86
2021/05/28 00:15:18;;;;;;;2.30;2.10;;;10.00;70.90;;;9.31;56.73;95183.66;5109190;28;20205;-85
2021/05/28 00:17:44;;;;;;;2.03;1.90;;;10.00;70.90;;;9.29;56.88;95180.41;5104810;28;20242;-85
2021/05/28 00:20:14;;;;;;;3.03;2.30;;;10.00;70.90;;;9.22;57.34;95179.50;5053404;28;20262;-83
2021/05/28 00:22:43;;;;;;;2.88;2.30;;;9.90;72.40;;;9.21;57.17;95190.94;4972433;28;20207;-83
2021/05/28 00:25:12;;;;;;;2.78;2.20;;;9.90;72.50;;;9.18;57.25;95193.91;4943071;28;20242;-84
2021/05/28 00:27:40;;;;;;;2.28;2.08;;;9.80;72.40;;;9.14;56.87;95193.44;4883645;29;20300;-85
2021/05/28 00:30:08;;;;;;;2.30;2.10;;;9.80;72.30;;;9.11;56.75;95199.84;4644552;30;20220;-85
2021/05/28 00:32:41;;;;;;;2.28;2.00;;;9.70;72.20;;;9.08;57.11;95196.75;5148297;27;20420;-86
2021/05/28 00:35:09;;;;;;;3.53;2.00;;;9.70;72.20;;;9.04;56.94;95192.88;5108957;28;20280;-85
2021/05/28 00:37:36;;;;;;;2.75;2.28;;;9.70;72.30;;;9.03;56.66;95199.91;5091940;28;20229;-86
2021/05/28 00:40:04;;;;;;;2.30;2.10;;;9.60;72.20;;;9.01;56.83;95191.44;5090396;28;20209;-85
2021/05/28 00:42:31;;;;;;;2.40;2.20;;;9.60;72.30;;;8.98;56.79;95194.38;5086352;28;20190;-85
2021/05/28 00:44:57;;;;;;;2.50;2.30;;;9.60;72.30;;;8.96;57.08;95193.75;5002497;28;20262;-85
2021/05/28 00:47:24;;;;;;;3.10;1.98;;;9.60;72.30;;;8.94;56.88;95188.69;4932953;28;20203;-85
2021/05/28 00:49:51;;;;;;;2.42;2.20;;;9.60;72.30;;;8.90;56.59;95197.03;4841645;29;20241;-85
2021/05/28 00:52:29;;;;;;;2.00;1.88;;;9.60;72.30;;;8.85;56.95;95194.16;5149856;27;20844;-85
2021/05/28 00:54:56;;;;;;;2.60;2.17;;;9.50;72.40;;;8.83;57.55;95190.91;5109212;28;20212;-83
2021/05/28 00:57:26;;;;;;;2.30;2.10;;;9.50;72.50;;;8.80;57.20;95199.91;5103990;28;20219;-83
2021/05/28 00:59:56;;;;;;;2.90;2.10;;;9.50;72.60;;;8.73;57.02;95189.31;5073086;28;20208;-83
2021/05/28 01:02:25;;;;;;;2.15;1.92;;;9.40;72.40;;;8.70;57.03;95191.47;5015336;28;20228;-83
2021/05/28 01:04:53;;;;;;;2.72;2.22;;;9.40;72.50;;;8.69;56.95;95192.44;4995054;28;20218;-83
2021/05/28 01:07:19;;;;;;;2.70;2.28;;;9.30;72.40;;;8.61;57.34;95190.72;4993950;28;20744;-83
2021/05/28 01:09:48;;;;;;;2.55;2.30;;;9.30;72.50;;;8.67;57.74;95200.47;4894510;28;20674;-85
2021/05/28 01:12:26;;;;;;;2.55;2.20;;;9.30;72.70;;;8.65;57.47;95203.28;5150250;27;20378;-85
2021/05/28 01:14:53;;;;;;;2.55;2.35;;;9.40;72.70;;;8.65;57.37;95211.13;5126113;28;20561;-86
2021/05/28 01:17:21;;;;;;;4.60;2.50;;;9.30;72.80;;;8.65;57.53;95207.66;5107116;28;20263;-85
2021/05/28 01:19:48;;;;;;;3.13;2.40;;;9.30;72.90;;;8.65;57.87;95215.50;5078171;28;20213;-85
2021/05/28 01:22:19;;;;;;;5.60;2.72;;;9.20;73.00;;;8.65;58.62;95199.81;5047870;28;20659;-85
2021/05/28 01:24:47;;;;;;;4.78;2.42;;;9.30;73.40;;;8.67;58.84;95210.94;4983263;28;20233;-85
2021/05/28 01:27:14;;;;;;;2.67;2.20;;;9.20;73.30;;;8.68;58.69;95209.97;4954039;28;20209;-84
2021/05/28 01:29:41;;;;;;;2.60;2.40;;;9.20;73.40;;;8.69;58.78;95224.66;4765358;29;20246;-83
2021/05/28 01:33:53;;;;;;;3.00;2.70;;;9.30;73.50;;;8.69;58.25;95221.22;5137866;27;20998;-85
2021/05/28 01:36:20;;;;;;;3.17;2.40;;;9.30;73.40;;;8.64;58.47;95214.72;5109158;28;20193;-85
2021/05/28 01:38:47;;;;;;;2.25;2.10;;;9.30;73.50;;;8.68;58.04;95211.75;5089828;28;20257;-83
2021/05/28 01:41:13;;;;;;;3.05;2.40;;;9.20;73.40;;;8.65;58.06;95212.91;5057310;28;20221;-83
2021/05/28 01:43:40;;;;;;;2.65;2.40;;;9.20;73.40;;;8.63;58.63;95207.06;5001291;28;20232;-83
2021/05/28 01:46:07;;;;;;;3.55;2.70;;;9.20;73.50;;;8.57;59.17;95189.41;4908081;29;20212;-83
2021/05/28 01:48:34;;;;;;;3.05;2.50;;;9.20;73.70;;;8.59;59.28;95198.72;4871942;29;20783;-83
2021/05/28 01:51:01;;;;;;;2.45;2.20;;;9.30;73.80;;;8.60;58.66;95210.00;4821528;29;20254;-83
2021/05/28 01:54:39;;;;;;;2.17;1.98;;;9.20;73.70;;;8.53;58.52;95202.00;5132393;27;20980;-82
2021/05/28 01:57:10;;;;;;;3.47;2.15;;;9.20;74.00;;;8.51;58.54;95206.63;5125273;28;20205;-85
2021/05/28 01:59:37;;;;;;;2.35;2.15;;;9.20;73.80;;;8.51;58.38;95206.63;5112939;28;20693;-84
2021/05/28 02:02:05;;;;;;;2.60;2.38;;;9.10;73.60;;;8.47;58.51;95208.75;5053109;28;20203;-84
2021/05/28 02:04:32;;;;;;;3.28;2.72;;;9.10;73.60;;;8.42;59.46;95199.75;5037366;28;20282;-85
2021/05/28 02:06:59;;;;;;;3.95;2.72;;;9.10;73.80;;;8.43;61.01;95198.78;5003503;28;20203;-85
2021/05/28 02:09:27;;;;;;;4.43;2.67;;;9.10;74.20;;;8.45;60.04;95204.66;4902161;28;20234;-83
2021/05/28 02:14:47;;;;;;;2.90;2.40;;;9.10;74.40;;;8.46;60.08;95208.91;5172013;27;20551;-83
2021/05/28 02:17:14;;;;;;;2.95;2.58;;;9.00;74.50;;;8.41;59.65;95198.97;5116256;27;20211;-83
2021/05/28 02:19:43;;;;;;;3.05;2.45;;;9.10;74.50;;;8.41;60.49;95203.34;5129650;27;20367;-82
2021/05/28 02:22:11;;;;;;;3.10;2.80;;;9.00;75.00;;;8.45;60.79;95209.88;5133894;27;20206;-82
2021/05/28 02:24:38;;;;;;;2.78;2.58;;;9.00;75.10;;;8.42;61.16;95210.22;5118821;27;20707;-83
2021/05/28 02:27:05;;;;;;;3.00;2.70;;;9.00;75.10;;;8.46;60.84;95207.13;5068282;28;20208;-82
2021/05/28 02:29:32;;;;;;;3.00;2.70;;;9.00;75.10;;;8.47;60.15;95202.69;4879920;29;20688;-83
2021/05/28 02:31:58;;;;;;;2.58;2.38;;;9.10;75.10;;;8.46;61.34;95211.53;4804814;29;20317;-83
2021/05/28 02:34:38;;;;;;;3.80;2.80;;;9.10;75.20;;;8.43;60.74;95201.38;5131553;27;20392;-83
2021/05/28 02:37:05;;;;;;;3.42;2.92;;;9.10;75.20;;;8.45;60.91;95212.50;5106104;28;21008;-81
2021/05/28 02:39:32;;;;;;;2.92;2.45;;;9.10;75.20;;;8.46;60.89;95203.69;5051645;28;20230;-83
2021/05/28 02:41:59;;;;;;;2.60;2.40;;;9.00;75.10;;;8.47;60.62;95205.31;5016949;28;20663;-83
2021/05/28 02:44:26;;;;;;;2.70;2.50;;;9.10;75.20;;;8.43;60.51;95207.41;5038326;28;20700;-83
2021/05/28 02:46:53;;;;;;;3.00;2.70;;;9.10;75.20;;;8.43;60.30;95220.50;5007371;28;20202;-84
2021/05/28 02:49:21;;;;;;;3.08;2.40;;;9.10;75.20;;;8.42;61.29;95223.28;4969164;28;20258;-84
2021/05/28 02:51:47;;;;;;;2.58;2.38;;;9.00;75.10;;;8.46;61.68;95227.19;4911062;28;20241;-83
2021/05/28 02:56:05;;;;;;;3.13;2.40;;;9.00;75.10;;;8.48;60.87;95227.84;5151175;27;20657;-86
2021/05/28 02:58:33;;;;;;;2.50;2.30;;;9.10;75.20;;;8.46;60.68;95221.97;5111702;27;20674;-85
2021/05/28 03:01:00;;;;;;;2.80;2.10;;;9.10;75.20;;;8.50;60.49;95225.91;5069675;28;20722;-85
2021/05/28 03:03:27;;;;;;;2.58;2.38;;;9.10;75.20;;;8.53;60.31;95222.91;5050680;28;20227;-85
2021/05/28 03:05:54;;;;;;;2.40;2.20;;;9.10;75.20;;;8.48;60.08;95218.22;5002001;28;20261;-85
2021/05/28 03:08:21;;;;;;;2.40;2.20;;;9.10;75.20;;;8.46;60.01;95216.75;4948049;28;20311;-83
2021/05/28 03:10:48;;;;;;;2.00;1.90;;;9.10;75.20;;;8.48;59.43;95226.06;4858054;29;20663;-82
2021/05/28 03:13:15;;;;;;;2.30;2.10;;;9.10;76.00;;;8.44;59.21;95227.34;4754909;29;20272;-82
2021/05/28 03:15:54;;;;;;;3.33;2.10;;;9.00;75.10;;;8.40;59.44;95228.69;5151319;27;20383;-84
2021/05/28 03:18:22;;;;;;;2.30;2.10;;;9.10;75.00;;;8.35;59.17;95233.63;5113290;27;20219;-85
2021/05/28 03:21:20;;;;;;;2.40;2.20;;;9.00;74.90;;;8.32;59.52;95233.94;5102120;27;20213;-83
2021/05/28 03:23:54;;;;;;;2.35;2.15;;;9.00;75.10;;;8.29;59.95;95232.47;4985237;28;20241;-85
2021/05/28 03:26:23;;;;;;;2.55;2.20;;;9.00;75.10;;;8.31;59.68;95230.53;4954122;28;20222;-83
2021/05/28 03:28:51;;;;;;;2.45;2.25;;;8.90;75.00;;;8.31;59.80;95230.53;4926923;29;20233;-83
2021/05/28 03:31:18;;;;;;;2.42;2.22;;;8.90;75.00;;;8.33;59.77;95228.53;4874461;29;20653;-82
2021/05/28 03:34:05;;;;;;;2.90;2.60;;;8.90;75.00;;;8.33;60.10;95233.75;5136329;27;20631;-85
2021/05/28 03:36:32;;;;;;;7.43;2.55;;;8.90;75.00;;;8.38;59.84;95240.31;5105933;28;20231;-83
2021/05/28 03:38:58;;;;;;;2.55;2.15;;;8.90;75.00;;;8.41;59.98;95234.72;5086624;28;20325;-84
2021/05/28 03:41:25;;;;;;;3.33;2.58;;;9.00;75.10;;;8.45;60.75;95236.03;5096953;28;20214;-83
2021/05/28 03:43:52;;;;;;;2.60;2.40;;;9.00;75.20;;;8.53;60.57;95236.00;5069045;28;20229;-82
2021/05/28 03:46:20;;;;;;;2.90;2.40;;;9.10;75.60;;;8.61;60.85;95241.19;5040833;28;20228;-83
2021/05/28 03:48:47;;;;;;;2.50;2.30;;;9.00;75.80;;;8.68;61.24;95241.34;4927398;28;20236;-83
2021/05/28 03:51:13;;;;;;;2.80;2.60;;;9.10;75.90;;;8.75;60.74;95234.44;4742595;29;20627;-83
2021/05/28 03:54:45;;;;;;;2.83;2.45;;;9.10;75.90;;;8.80;60.75;95236.50;5130554;27;20626;-83
2021/05/28 03:57:13;;;;;;;3.38;2.33;;;9.20;76.70;;;8.85;61.51;95244.69;5105376;28;20201;-83
2021/05/28 03:59:39;;;;;;;2.95;2.72;;;9.30;76.20;;;8.92;62.10;95239.56;5065333;28;20277;-84
2021/05/28 04:02:06;;;;;;;3.13;2.90;;;9.30;76.40;;;9.01;62.19;95249.00;5025304;28;20224;-83
2021/05/28 04:04:34;;;;;;;2.90;2.70;;;9.40;76.70;;;9.11;61.81;95246.16;4982559;28;20223;-84
2021/05/28 04:07:01;;;;;;;2.50;2.30;;;9.40;76.70;;;9.19;61.50;95253.94;4900841;29;20213;-83
2021/05/28 04:09:29;;;;;;;2.88;2.58;;;9.50;76.80;;;9.28;61.41;95239.78;4820399;29;20233;-83
2021/05/28 04:11:56;;;;;;;2.80;2.50;;;9.60;76.90;;;9.42;61.54;95253.09;4813558;29;20223;-83
2021/05/28 04:14:36;;;;;;;4.93;2.92;;;9.70;76.90;;;9.51;61.85;95257.28;5131863;27;20348;-83
2021/05/28 04:17:03;;;;;;;3.13;2.80;;;9.80;77.20;;;9.57;62.25;95250.50;5118280;28;20205;-83
2021/05/28 04:19:30;;;;;;;2.97;2.70;;;9.80;77.10;;;9.70;62.18;95261.19;5089914;28;20654;-83
2021/05/28 04:21:57;;;;;;;3.05;2.75;;;9.90;77.20;;;9.80;61.81;95257.53;5091616;28;20548;-83
2021/05/28 04:24:24;;;;;;;3.08;2.80;;;10.10;76.10;;;9.90;61.69;95261.53;5049561;28;20588;-83
2021/05/28 04:26:50;;;;;;;2.80;2.60;;;10.10;76.10;;;9.96;61.80;95257.38;5013324;28;20283;-83
2021/05/28 04:29:19;;;;;;;2.95;2.60;;;10.20;76.20;;;10.08;62.72;95265.59;4989184;28;20317;-82
2021/05/28 04:31:46;;;;;;;3.10;2.90;;;10.30;76.20;;;10.15;62.27;95260.47;4892953;28;20218;-82
2021/05/28 04:34:20;;;;;;;3.05;2.50;;;10.40;76.30;;;10.23;61.73;95263.00;5134231;27;20858;-83
2021/05/28 04:36:46;;;;;;;2.83;2.63;;;10.50;76.20;;;10.31;61.68;95256.84;5110993;28;20193;-82
2021/05/28 04:39:13;;;;;;;3.67;2.80;;;10.60;76.20;;;10.45;61.99;95265.72;5094342;28;20234;-83
2021/05/28 04:41:41;;;;;;;3.53;2.50;;;10.60;76.30;;;10.56;61.86;95271.31;5062870;28;20198;-83
2021/05/28 04:44:08;;;;;;;2.75;2.50;;;10.70;76.50;;;10.72;62.04;95266.88;4994678;28;20399;-83
2021/05/28 04:46:35;;;;;;;3.60;3.15;;;10.80;76.60;;;10.90;62.28;95276.97;4855724;29;20211;-82
2021/05/28 04:49:02;;;;;;;3.05;2.75;;;11.00;77.00;;;11.05;62.54;95280.38;4817404;29;20234;-83
2021/05/28 04:54:15;;;;;;;3.10;2.72;;;11.10;77.20;;;11.32;62.33;95280.63;5134718;27;20666;-83
2021/05/28 04:56:43;;;;;;;3.10;2.80;;;11.40;77.10;;;11.43;61.87;95281.94;5125714;28;20734;-83
2021/05/28 04:59:10;;;;;;;2.75;2.55;;;11.50;77.00;;;11.51;61.63;95278.38;5104439;28;20328;-82
2021/05/28 05:01:37;;;;;;;2.78;2.28;;;11.60;76.70;;;11.62;61.49;95282.31;5063839;28;20226;-83
2021/05/28 05:04:05;;;;;;;2.80;2.40;;;11.70;76.70;;;11.64;61.12;95281.13;4991446;28;20313;-83
2021/05/28 05:06:32;;;;;;;2.67;2.45;;;11.70;76.20;;;11.69;61.08;95283.19;4873948;29;20221;-83
2021/05/28 05:08:58;;;;;;;2.65;2.45;;;11.90;76.00;;;11.75;61.17;95292.94;4829211;29;20246;-82
2021/05/28 05:11:25;;;;;;;3.00;2.63;;;11.90;75.90;;;11.79;60.95;95290.75;4672571;30;20234;-84
2021/05/28 05:14:03;;;;;;;2.40;2.20;;;12.10;76.10;;;11.81;60.66;95297.44;5136718;27;20541;-82
2021/05/28 05:16:30;;;;;;;2.70;2.35;;;12.00;76.00;;;11.84;60.78;95291.81;5069645;28;20205;-83
2021/05/28 05:19:12;;;;;;;3.17;2.10;;;12.00;76.00;;;11.90;60.56;95292.88;5073965;28;20229;-83
2021/05/28 05:21:40;;;;;;;2.33;2.15;;;12.10;76.10;;;11.91;60.61;95299.72;5035510;28;20216;-83
2021/05/28 05:24:10;;;;;;;2.50;2.30;;;12.20;76.10;;;11.93;60.59;95287.22;5008923;28;20600;-83
2021/05/28 05:26:39;;;;;;;2.53;2.30;;;12.20;75.90;;;11.96;60.58;95293.91;4987148;28;20201;-85
2021/05/28 05:29:09;;;;;;;2.28;2.08;;;12.30;75.90;;;11.95;60.53;95295.75;4911112;28;20316;-82
2021/05/28 05:31:35;;;;;;;2.53;2.33;;;12.30;75.60;;;11.99;60.02;95297.00;4822182;29;20225;-83
2021/05/28 05:35:30;;;;;;;2.13;2.00;;;12.30;76.50;;;12.02;59.95;95293.19;5150937;27;20635;-83
2021/05/28 05:38:01;;;;;;;2.92;2.55;;;12.40;75.40;;;12.08;60.20;95299.50;5107880;28;20216;-84
2021/05/28 05:40:28;;;;;;;2.78;2.58;;;12.40;75.50;;;12.09;60.26;95301.94;5089862;27;20212;-82
2021/05/28 05:42:55;;;;;;;2.70;2.50;;;12.40;75.60;;;12.12;60.23;95301.56;5088722;28;20237;-83
2021/05/28 05:45:21;;;;;;;2.50;2.30;;;12.40;75.50;;;12.20;60.26;95307.69;5037174;28;20212;-84
2021/05/28 05:47:50;;;;;;;2.50;2.30;;;12.50;75.60;;;12.22;60.17;95306.47;4985793;28;20236;-83
2021/05/28 05:50:17;;;;;;;4.70;2.70;;;12.50;75.60;;;12.28;60.42;95308.34;5036412;28;20214;-83
2021/05/28 05:52:44;;;;;;;2.40;2.20;;;12.50;75.60;;;12.40;60.01;95310.44;4985483;28;20225;-83
2021/05/28 05:55:23;;;;;;;2.53;2.33;;;12.60;75.80;;;12.51;59.90;95311.69;5150928;27;20375;-83
2021/05/28 05:57:51;;;;;;;2.45;2.20;;;12.60;75.90;;;12.60;59.83;95313.19;5097192;28;20221;-82
2021/05/28 06:00:20;;;;;;;2.65;2.45;;;12.70;76.10;;;12.68;59.83;95313.00;5073967;28;20254;-83
2021/05/28 06:02:48;;;;;;;2.83;2.40;;;12.70;75.90;;;12.81;59.64;95323.59;5067276;28;20321;-83
2021/05/28 06:05:18;;;;;;;2.58;2.38;;;12.80;75.60;;;12.90;59.87;95326.91;5010382;28;20691;-82
2021/05/28 06:07:46;;;;;;;3.45;2.60;;;13.00;75.80;;;13.00;59.57;95315.16;4954827;28;20246;-83
2021/05/28 06:10:14;;;;;;;3.20;2.58;;;13.00;75.60;;;13.10;59.20;95315.63;4934349;28;20241;-83
2021/05/28 06:15:14;;;;;;;2.75;2.55;;;13.20;75.60;;;13.32;58.86;95315.47;5150877;27;20712;-83
2021/05/28 06:17:41;;;;;;;2.60;2.40;;;13.30;75.20;;;13.47;58.98;95321.44;5107315;27;20253;-83
2021/05/28 06:20:09;;;;;;;2.63;2.42;;;13.40;75.20;;;13.59;58.93;95317.19;5089759;28;20211;-83
2021/05/28 06:22:36;;;;;;;3.08;2.63;;;13.50;75.30;;;13.71;58.81;95321.88;5061257;28;20211;-83
2021/05/28 06:25:03;;;;;;;2.80;2.60;;;13.60;75.30;;;13.82;58.81;95331.00;5052348;28;20696;-83
2021/05/28 06:27:30;;;;;;;3.55;3.25;;;13.70;75.20;;;13.89;58.57;95316.81;5014541;28;20213;-84
2021/05/28 06:29:58;;;;;;;3.20;2.90;;;13.90;75.20;;;14.05;58.17;95322.72;4943696;28;20202;-84
2021/05/28 06:32:25;;;;;;;3.05;2.80;;;13.90;74.90;;;14.15;57.84;95317.03;4875449;28;20237;-83
2021/05/28 06:34:58;;;;;;;2.85;2.60;;;14.10;74.90;;;14.33;57.60;95319.03;5150975;27;20382;-83
2021/05/28 06:37:25;;;;;;;2.80;2.60;;;14.20;74.80;;;14.45;57.90;95319.22;5095196;27;20664;-83
2021/05/28 06:39:52;;;;;;;2.75;2.55;;;14.40;74.90;;;14.64;57.45;95328.13;5071290;28;20666;-84
2021/05/28 06:42:19;;;;;;;2.83;2.63;;;14.50;74.90;;;14.80;57.65;95318.97;5097934;28;20296;-83
2021/05/28 06:44:45;;;;;;;2.83;2.53;;;14.60;74.70;;;14.85;57.18;95312.03;5054674;28;20294;-84
2021/05/28 06:47:12;;;;;;;2.78;2.58;;;14.80;74.70;;;14.92;56.96;95319.94;5026533;28;20208;-84
2021/05/28 06:49:39;;;;;;;2.80;2.47;;;14.80;74.80;;;14.94;56.33;95315.25;5016594;28;20258;-84
2021/05/28 06:52:05;;;;;;;3.40;3.08;;;14.90;73.60;;;14.98;55.88;95316.44;4966631;28;20209;-84
2021/05/28 06:54:43;;;;;;;2.92;2.60;;;14.90;73.20;;;15.04;56.12;95320.91;5130697;27;20727;-83
2021/05/28 06:57:09;;;;;;;2.83;2.60;;;15.00;73.20;;;15.13;55.96;95313.53;5106955;28;20215;-84
2021/05/28 06:59:36;;;;;;;2.90;2.60;;;15.10;73.20;;;15.21;55.96;95312.50;5089459;28;20654;-83
2021/05/28 07:02:06;;;;;;;3.17;2.80;;;15.20;73.30;;;15.29;55.53;95314.88;5060636;28;20610;-83
2021/05/28 07:04:36;;;;;;;3.15;2.85;;;15.30;73.20;;;15.37;54.86;95324.41;5004174;28;20786;-83
2021/05/28 07:07:04;;;;;;;3.80;3.20;;;15.30;72.50;;;15.37;54.08;95317.28;4895632;29;20208;-84
2021/05/28 07:09:33;;;;;;;4.03;3.28;;;15.40;71.80;;;15.37;53.81;95333.16;4801411;29;20243;-83
2021/05/28 07:12:00;;;;;;;2.70;2.45;;;15.50;71.60;;;15.32;53.98;95326.88;4650097;30;20244;-83
2021/05/28 07:14:38;;;;;;;3.13;2.83;;;15.40;71.50;;;15.20;53.59;95311.69;5131209;27;20729;-83
2021/05/28 07:17:05;;;;;;;2.97;2.75;;;15.50;71.10;;;15.15;54.25;95321.28;5069517;28;20651;-84
2021/05/28 07:19:32;;;;;;;2.97;2.75;;;15.50;71.10;;;15.15;54.40;95324.72;5069578;28;20253;-83
2021/05/28 07:22:01;;;;;;;2.80;2.60;;;15.40;71.30;;;15.15;54.86;95322.06;5070277;28;20608;-83
2021/05/28 07:24:28;;;;;;;3.10;2.80;;;15.40;71.50;;;15.20;54.52;95324.88;5105090;28;20260;-84
2021/05/28 07:26:54;;;;;;;2.85;2.65;;;15.30;71.50;;;15.31;55.00;95320.78;5040220;28;20200;-83
2021/05/28 07:29:21;;;;;;;3.38;2.92;;;15.30;72.00;;;15.36;54.32;95325.44;5001502;28;20231;-83
2021/05/28 07:32:02;;;;;;;3.17;2.85;;;15.40;71.70;;;15.43;54.22;95320.94;5150965;27;20637;-84
2021/05/28 07:34:30;;;;;;;3.45;2.85;;;15.40;71.50;;;15.42;53.89;95321.94;5092033;27;20233;-84
2021/05/28 07:36:56;;;;;;;3.22;2.97;;;15.50;71.40;;;15.43;53.47;95320.09;5103254;28;20223;-84
2021/05/28 07:39:23;;;;;;;2.90;2.67;;;15.50;71.00;;;15.46;54.05;95325.78;5043498;28;20232;-82
2021/05/28 07:41:49;;;;;;;3.63;2.97;;;15.50;71.10;;;15.52;53.72;95329.41;5019312;28;20248;-84
2021/05/28 07:44:16;;;;;;;3.95;3.22;;;15.60;71.10;;;15.50;53.06;95327.00;4998647;28;20228;-83
2021/05/28 07:46:44;;;;;;;3.78;3.40;;;15.70;70.90;;;15.57;53.13;95342.00;4929327;28;20218;-84
2021/05/28 07:49:15;;;;;;;3.47;3.05;;;15.70;71.00;;;15.61;53.79;95329.97;4821307;29;20780;-84
2021/05/28 07:51:53;;;;;;;3.30;3.00;;;15.60;71.00;;;15.83;53.70;95341.84;5150883;27;20378;-83
2021/05/28 07:54:20;;;;;;;3.10;2.80;;;15.70;71.20;;;15.93;53.56;95330.81;5112533;27;20754;-84
2021/05/28 07:56:47;;;;;;;3.50;3.20;;;15.80;71.40;;;16.07;52.84;95320.91;5106258;28;20704;-83
2021/05/28 07:59:14;;;;;;;3.92;2.83;;;15.90;71.10;;;16.19;53.35;95318.38;5077742;28;20222;-84
2021/05/28 08:01:41;;;;;;;3.17;2.88;;;16.00;71.30;;;16.33;52.80;95321.72;5006273;28;20193;-84
2021/05/28 08:04:07;;;;;;;3.03;2.70;;;16.10;71.00;;;16.41;53.09;95310.06;4922872;28;20241;-83
2021/05/28 08:06:35;;;;;;;2.78;2.47;;;16.20;71.10;;;16.53;53.21;95308.28;4833572;29;20644;-84
2021/05/28 08:09:04;;;;;;;2.90;2.60;;;16.30;71.50;;;16.76;53.38;95309.47;4800415;29;20432;-83
2021/05/28 08:11:37;;;;;;;2.50;2.30;;;16.40;71.50;;;16.96;53.41;95310.09;5150742;27;20837;-83
2021/05/28 08:14:04;;;;;;;2.78;2.58;;;16.50;71.50;;;17.09;52.64;95301.19;5112212;27;20247;-82
2021/05/28 08:16:33;;;;;;;3.15;2.45;;;16.70;71.30;;;17.12;52.89;95299.91;5093366;28;20203;-84
2021/05/28 08:18:59;;;;;;;2.45;2.25;;;16.80;70.70;;;17.11;52.25;95306.25;5089252;28;20229;-83
2021/05/28 08:21:26;;;;;;;2.78;2.47;;;16.90;70.60;;;17.07;52.13;95303.22;5015749;28;20199;-84
2021/05/28 08:23:53;;;;;;;2.65;2.25;;;17.00;70.20;;;17.12;52.35;95306.03;5003381;28;20249;-84
2021/05/28 08:26:20;;;;;;;2.40;2.20;;;17.00;70.20;;;17.09;52.12;95310.97;4942264;28;20210;-84
2021/05/28 08:28:48;;;;;;;2.47;2.28;;;17.00;70.10;;;17.10;51.97;95313.41;4808986;29;20325;-83
2021/05/28 08:31:28;;;;;;;2.58;2.35;;;17.00;69.80;;;17.08;51.89;95312.81;5150990;27;20844;-84
2021/05/28 08:33:54;;;;;;;2.42;2.22;;;17.00;69.70;;;17.08;52.28;95314.66;5090200;28;20262;-83
2021/05/28 08:36:21;;;;;;;2.67;2.40;;;17.00;69.70;;;17.12;52.39;95316.66;5093050;28;20235;-84
2021/05/28 08:38:48;;;;;;;2.65;2.45;;;17.10;70.00;;;17.19;52.00;95316.56;5069429;28;20226;-83
2021/05/28 08:41:18;;;;;;;3.15;2.47;;;17.10;69.90;;;17.30;52.41;95309.69;5027307;28;20236;-83
2021/05/28 08:43:45;;;;;;;2.63;2.25;;;17.10;70.10;;;17.41;52.47;95321.38;4978956;28;20225;-84
2021/05/28 08:46:16;;;;;;;2.40;2.20;;;17.20;70.20;;;17.49;52.23;95321.06;4890198;29;20268;-83
2021/05/28 08:48:45;;;;;;;3.67;2.58;;;17.30;70.00;;;17.56;52.27;95311.16;4720137;29;20590;-84
2021/05/28 08:51:23;;;;;;;2.50;2.30;;;17.30;70.10;;;17.75;51.92;95319.88;5150944;27;20374;-83
2021/05/28 08:53:51;;;;;;;2.35;2.15;;;17.40;70.10;;;17.90;51.47;95308.81;5090021;28;20316;-83
2021/05/28 08:56:18;;;;;;;2.60;2.40;;;17.60;70.20;;;18.04;51.54;95300.69;5071205;28;20316;-84
2021/05/28 08:58:44;;;;;;;2.50;2.30;;;17.70;70.10;;;18.21;51.75;95300.81;5055844;28;20646;-84
2021/05/28 09:01:12;;;;;;;2.15;1.98;;;17.70;70.10;;;18.36;50.97;95300.38;4995803;28;20209;-84
2021/05/28 09:03:41;;;;;;;2.20;1.98;;;17.90;69.70;;;18.37;51.16;95297.47;4972570;28;20254;-83
2021/05/28 09:06:18;;;;;;;2.53;2.33;;;18.00;69.70;;;18.37;50.98;95309.94;4888563;29;20205;-84
2021/05/28 09:08:45;;;;;;;2.33;2.13;;;18.10;69.00;;;18.27;50.56;95304.41;4775669;29;20706;-83
2021/05/28 09:11:23;;;;;;;2.35;2.15;;;18.10;68.80;;;18.19;50.92;95311.66;5150709;27;20314;-83
2021/05/28 09:13:57;;;;;;;2.20;2.00;;;18.10;68.90;;;18.22;50.86;95313.88;5095625;27;20249;-83
2021/05/28 09:16:29;;;;;;;3.13;2.20;;;18.10;68.90;;;18.28;50.82;95300.72;5101607;28;20203;-84
2021/05/28 09:19:00;;;;;;;2.58;2.38;;;18.20;68.90;;;18.35;49.86;95306.72;5011201;28;20258;-83
2021/05/28 09:21:34;;;;;;;2.40;2.20;;;18.20;68.50;;;18.50;50.76;95312.34;4987412;28;20236;-83
2021/05/28 09:24:07;;;;;;;2.53;2.00;;;18.30;68.30;;;18.68;50.38;95303.44;4917004;28;20226;-83
2021/05/28 09:26:36;;;;;;;2.60;2.40;;;18.40;68.40;;;18.79;48.69;95301.03;4861411;29;20228;-84
2021/05/28 09:29:19;;;;;;;2.38;2.17;;;18.50;68.10;;;18.83;47.22;95300.28;5134416;27;20650;-83
2021/05/28 09:31:46;;;;;;;2.63;2.35;;;18.60;67.10;;;18.84;47.95;95298.47;5086288;28;20205;-83
2021/05/28 09:34:14;;;;;;;2.30;2.10;;;18.60;67.10;;;18.90;47.76;95294.88;5068754;28;20253;-84
2021/05/28 09:36:40;;;;;;;2.20;2.00;;;18.70;66.90;;;18.99;48.02;95296.16;5008540;28;20193;-83
2021/05/28 09:39:12;;;;;;;2.10;1.90;;;18.80;67.10;;;19.10;48.75;95297.16;4945105;28;20651;-84
2021/05/28 09:41:56;;;;;;;2.78;2.08;;;18.80;67.30;;;19.27;48.74;95307.03;4928542;28;20222;-84
2021/05/28 09:44:32;;;;;;;2.17;1.98;;;18.90;67.40;;;19.38;48.61;95300.06;4842212;29;20233;-85
2021/05/28 09:47:19;;;;;;;2.30;2.10;;;19.00;67.50;;;19.50;48.07;95306.16;4656290;30;20234;-82
2021/05/28 09:49:56;;;;;;;2.08;1.85;;;19.10;67.30;;;19.58;47.70;95310.25;5150395;27;20326;-83
2021/05/28 09:52:32;;;;;;;1.40;1.40;;;19.20;66.90;;;19.67;48.16;95308.84;5110099;27;20197;-82
2021/05/28 09:55:08;;;;;;;2.00;1.90;;;19.30;67.00;;;19.75;47.74;95311.13;5060320;28;20209;-82
2021/05/28 09:57:57;;;;;;;1.90;1.80;;;19.40;66.40;;;19.73;48.14;95313.22;5060614;28;20837;-82
2021/05/28 10:00:33;;;;;;;2.75;1.90;;;19.40;67.10;;;19.68;47.26;95305.13;5029672;28;20215;-82
2021/05/28 10:03:12;;;;;;;1.70;1.60;;;19.40;66.00;;;19.54;47.68;95298.50;4953098;28;20227;-84
2021/05/28 10:05:45;;;;;;;2.08;1.80;;;19.40;66.70;;;19.38;47.08;95300.06;4868904;29;20274;-83
2021/05/28 10:10:08;;;;;;;1.45;1.35;;;19.40;65.60;;;19.15;47.90;95304.41;5150988;27;20644;-84
2021/05/28 10:12:35;;;;;;;2.20;2.00;;;19.30;65.90;;;19.17;47.73;95307.66;5110395;27;20195;-82
2021/05/28 10:15:04;;;;;;;1.40;1.25;;;19.30;66.00;;;19.26;48.09;95300.09;5086710;27;20220;-83
2021/05/28 10:17:31;;;;;;;1.60;1.50;;;19.20;66.20;;;19.43;47.43;95293.00;5085398;28;20210;-83
2021/05/28 10:19:58;;;;;;;1.77;1.67;;;19.20;66.00;;;19.63;47.13;95305.06;5052327;28;20198;-82
2021/05/28 10:22:27;;;;;;;2.00;1.90;;;19.30;66.10;;;19.82;46.19;95298.47;5026953;28;20227;-83
2021/05/28 10:24:54;;;;;;;2.58;1.70;;;19.40;66.40;;;20.00;46.90;95292.13;4937791;28;20311;-83
2021/05/28 10:27:24;;;;;;;1.70;1.60;;;19.50;66.30;;;20.23;45.97;95301.00;4846681;29;20227;-83
2021/05/28 10:31:55;;;;;;;1.80;1.70;;;19.70;65.60;;;20.48;45.68;95284.59;5150803;27;20629;-83
2021/05/28 10:35:09;;;;;;;1.70;1.60;;;20.00;65.60;;;20.64;45.02;95285.59;5091497;28;20233;-83
2021/05/28 10:37:38;;;;;;;1.70;1.60;;;20.10;65.60;;;20.76;43.95;95285.53;5024005;28;20301;-83
2021/05/28 10:40:31;;;;;;;2.20;2.00;;;20.30;64.20;;;20.71;42.50;95285.41;5006218;28;20202;-83
2021/05/28 10:43:07;;;;;;;1.80;1.70;;;20.40;63.80;;;20.52;42.37;95282.25;4868136;29;20248;-83
2021/05/28 10:46:02;;;;;;;2.05;1.85;;;20.50;62.80;;;20.16;42.08;95287.03;4800092;29;20221;-83
2021/05/28 10:48:38;;;;;;;1.90;1.80;;;20.40;62.70;;;19.94;42.69;95281.63;4692903;30;21218;-83
2021/05/28 10:52:04;;;;;;;2.15;2.00;;;20.30;62.40;;;19.55;42.80;95281.50;5150872;27;21139;-83
2021/05/28 10:54:34;;;;;;;1.75;1.65;;;20.10;61.80;;;19.30;42.32;95264.03;5073970;28;20289;-84
2021/05/28 10:57:55;;;;;;;2.05;1.67;;;20.00;61.40;;;19.24;43.19;95273.75;5060770;28;20196;-83